Time;durP1;ratioP1;P1;durP2;ratioP2;P2;SDS_P1;SDS_P2;PMS_P1;PMS_P2;Temp;Humidity;BMP_temperature;BMP_pressure;BME280_temperature;BME280_humidity;BME280_pressure;Samples;Min_cycle;Max_cycle;Signal;HPM_P1;HPM_P2
2023/12/26 00:02:32;;;;;;;0.70;0.70;;;12.80;39.20;;;;;;5199811;28;20064;-76
2023/12/26 00:05:06;;;;;;;1.20;1.10;;;12.90;69.30;;;;;;5203153;28;20039;-76
2023/12/26 00:07:42;;;;;;;1.90;1.10;;;12.90;69.40;;;;;;5203126;28;20041;-75
2023/12/26 00:10:15;;;;;;;0.70;0.70;;;12.90;52.80;;;;;;5197247;28;20031;-75
2023/12/26 00:12:52;;;;;;;1.17;1.10;;;12.90;45.80;;;;;;5188950;28;20133;-77
2023/12/26 00:15:23;;;;;;;0.80;0.80;;;13.00;6.20;;;;;;5186375;28;20606;-77
2023/12/26 00:18:00;;;;;;;1.10;0.98;;;12.90;3.60;;;;;;5168696;28;20033;-76
2023/12/26 00:20:43;;;;;;;2.20;1.00;;;13.00;1.00;;;;;;5201578;28;20029;-77
2023/12/26 00:23:16;;;;;;;0.90;0.90;;;13.00;72.30;;;;;;5183526;28;20502;-75
2023/12/26 00:25:47;;;;;;;2.50;1.00;;;13.00;31.60;;;;;;5202917;28;20047;-76
2023/12/26 00:28:19;;;;;;;0.90;0.90;;;13.00;19.90;;;;;;5184258;28;20033;-76
2023/12/26 00:30:52;;;;;;;0.98;0.98;;;13.10;48.40;;;;;;5188223;28;21119;-75
2023/12/26 00:33:23;;;;;;;1.27;1.10;;;13.10;32.40;;;;;;5194690;28;20035;-76
2023/12/26 00:35:56;;;;;;;1.00;1.00;;;13.00;53.50;;;;;;5187846;28;20070;-76
2023/12/26 00:38:28;;;;;;;0.93;0.93;;;13.00;19.50;;;;;;5188181;28;20072;-76
2023/12/26 00:40:59;;;;;;;1.38;1.08;;;13.00;16.30;;;;;;5196585;28;20338;-75
2023/12/26 00:43:31;;;;;;;0.90;0.90;;;13.00;33.10;;;;;;5189976;28;20234;-76
2023/12/26 00:46:06;;;;;;;0.70;0.70;;;12.90;4.90;;;;;;5172747;28;20029;-76
2023/12/26 00:48:43;;;;;;;1.45;1.20;;;12.90;16.60;;;;;;5158717;28;20029;-77
2023/12/26 00:51:14;;;;;;;1.33;1.30;;;12.90;15.50;;;;;;5175439;28;20030;-76
2023/12/26 00:53:48;;;;;;;0.82;0.80;;;12.90;69.60;;;;;;5163775;28;20461;-76
2023/12/26 00:56:21;;;;;;;1.20;1.20;;;12.90;24.00;;;;;;5180832;28;20247;-75
2023/12/26 00:58:55;;;;;;;1.50;1.35;;;12.90;57.80;;;;;;5182568;28;20040;-75
2023/12/26 01:01:26;;;;;;;1.52;1.23;;;13.00;99.90;;;;;;5181919;28;20144;-77
2023/12/26 01:04:00;;;;;;;1.00;1.00;;;13.00;98.90;;;;;;5182941;28;20043;-76
2023/12/26 01:06:33;;;;;;;0.80;0.80;;;12.90;59.10;;;;;;5176483;28;20034;-75
2023/12/26 01:09:05;;;;;;;1.05;1.05;;;12.90;89.10;;;;;;5180701;28;20052;-75
2023/12/26 01:11:36;;;;;;;1.08;1.00;;;12.80;97.60;;;;;;5181295;28;20041;-76
2023/12/26 01:14:15;;;;;;;1.10;1.00;;;12.70;89.30;;;;;;5181505;28;20065;-76
2023/12/26 01:16:48;;;;;;;1.55;0.90;;;12.60;62.50;;;;;;5162263;28;20344;-76
2023/12/26 01:19:21;;;;;;;1.10;1.00;;;12.40;82.60;;;;;;5164283;28;20343;-75
2023/12/26 01:21:52;;;;;;;1.30;0.90;;;12.30;1.00;;;;;;5175137;28;20163;-74
2023/12/26 01:24:23;;;;;;;0.90;0.90;;;12.20;78.70;;;;;;5168858;28;20400;-76
2023/12/26 01:26:54;;;;;;;0.82;0.82;;;12.10;57.70;;;;;;5182313;28;20034;-75
2023/12/26 01:29:28;;;;;;;0.90;0.90;;;12.20;71.20;;;;;;5164572;28;20044;-75
2023/12/26 01:32:02;;;;;;;0.73;0.73;;;12.20;22.50;;;;;;5157683;28;20242;-76
2023/12/26 01:34:33;;;;;;;1.00;1.00;;;12.30;1.00;;;;;;5173355;28;20044;-76
2023/12/26 01:37:04;;;;;;;0.93;0.93;;;12.30;1.00;;;;;;5182290;28;20030;-77
2023/12/26 01:39:37;;;;;;;0.80;0.80;;;12.30;9.10;;;;;;5189048;28;20229;-76
2023/12/26 01:42:13;;;;;;;2.28;1.00;;;12.00;4.20;;;;;;5177654;28;20307;-76
2023/12/26 01:44:44;;;;;;;0.80;0.80;;;11.80;27.10;;;;;;5183686;28;20033;-76
2023/12/26 01:47:17;;;;;;;1.13;0.95;;;11.70;24.50;;;;;;5200543;28;20025;-76
2023/12/26 01:49:51;;;;;;;1.10;1.00;;;11.50;18.20;;;;;;5184835;28;20021;-76
2023/12/26 01:52:25;;;;;;;1.20;1.20;;;11.50;9.30;;;;;;5182695;28;20037;-76
2023/12/26 01:54:59;;;;;;;;;;;11.40;5.70;;;;;;5202640;28;20048;-75
2023/12/26 01:57:38;;;;;;;1.02;0.90;;;11.30;1.00;;;;;;5188635;28;20133;-76
2023/12/26 02:00:09;;;;;;;1.25;0.98;;;11.30;9.40;;;;;;5180653;28;20033;-76
2023/12/26 02:02:46;;;;;;;0.90;0.90;;;11.30;27.60;;;;;;5196462;28;20351;-76
2023/12/26 02:05:20;;;;;;;0.90;0.90;;;11.30;1.00;;;;;;5180069;28;20293;-76
2023/12/26 02:07:53;;;;;;;1.20;1.10;;;11.30;1.00;;;;;;5166286;28;20044;-75
2023/12/26 02:10:25;;;;;;;1.08;1.02;;;11.20;1.00;;;;;;5199833;28;20025;-76
2023/12/26 02:12:56;;;;;;;0.93;0.70;;;11.10;1.00;;;;;;5191719;28;20037;-76
2023/12/26 02:15:32;;;;;;;0.85;0.85;;;11.20;1.00;;;;;;5193663;28;20025;-76
2023/12/26 02:18:07;;;;;;;0.73;0.70;;;11.10;1.00;;;;;;5198212;28;20033;-76
2023/12/26 02:20:41;;;;;;;;;;;11.10;1.00;;;;;;5182416;28;20144;-75
2023/12/26 02:23:12;;;;;;;0.80;0.80;;;11.30;1.00;;;;;;5200391;28;19915;-76
2023/12/26 02:25:46;;;;;;;0.80;0.80;;;11.30;1.00;;;;;;5183021;28;20041;-75
2023/12/26 02:28:18;;;;;;;0.98;0.98;;;11.60;1.00;;;;;;5182015;28;20360;-76
2023/12/26 02:30:51;;;;;;;1.00;0.85;;;11.80;1.00;;;;;;5188029;28;20037;-76
2023/12/26 02:33:22;;;;;;;1.17;1.08;;;12.10;14.20;;;;;;5199924;28;20194;-77
2023/12/26 02:35:55;;;;;;;1.30;1.20;;;12.40;11.60;;;;;;5172108;28;20407;-75
2023/12/26 02:38:26;;;;;;;0.80;0.80;;;12.70;2.60;;;;;;5151365;28;20038;-76
2023/12/26 02:41:00;;;;;;;0.80;0.80;;;12.80;74.00;;;;;;5178823;28;20331;-76
2023/12/26 02:43:33;;;;;;;1.00;1.00;;;13.00;23.50;;;;;;5162120;28;20029;-76
2023/12/26 02:46:12;;;;;;;0.98;0.98;;;12.80;79.00;;;;;;5160446;28;20204;-77
2023/12/26 02:48:45;;;;;;;1.02;1.00;;;12.90;91.90;;;;;;5178932;28;20336;-76
2023/12/26 02:51:20;;;;;;;0.80;0.80;;;12.90;23.20;;;;;;5167680;28;20042;-76
2023/12/26 02:53:51;;;;;;;;;;;13.00;15.50;;;;;;5164403;28;20448;-76
2023/12/26 02:56:26;;;;;;;1.15;1.15;;;13.00;20.90;;;;;;5178477;28;20096;-75
2023/12/26 02:58:59;;;;;;;0.90;0.90;;;13.00;1.00;;;;;;5178847;28;20125;-75
2023/12/26 03:01:33;;;;;;;0.90;0.90;;;13.00;25.30;;;;;;5176213;28;20041;-76
2023/12/26 03:04:04;;;;;;;0.98;0.98;;;13.00;1.00;;;;;;5164863;28;20053;-77
2023/12/26 03:06:39;;;;;;;0.90;0.90;;;13.10;1.00;;;;;;5177851;28;20038;-77
2023/12/26 03:09:12;;;;;;;0.90;0.90;;;13.10;3.80;;;;;;5174617;28;20014;-77
2023/12/26 03:11:49;;;;;;;0.77;0.77;;;13.10;1.00;;;;;;5190127;28;20037;-78
2023/12/26 03:14:23;;;;;;;0.95;0.90;;;13.10;1.00;;;;;;5160873;28;20042;-79
2023/12/26 03:16:56;;;;;;;;;;;12.90;1.00;;;;;;5186294;28;20038;-77
2023/12/26 03:19:27;;;;;;;1.00;1.00;;;12.90;1.00;;;;;;5182082;28;21187;-77
2023/12/26 03:21:59;;;;;;;1.00;1.00;;;12.90;1.00;;;;;;5186598;28;20041;-76
2023/12/26 03:24:32;;;;;;;1.30;1.20;;;12.90;1.00;;;;;;5178909;28;20097;-76
2023/12/26 03:27:06;;;;;;;1.80;1.00;;;13.00;1.00;;;;;;5179578;28;20041;-76
2023/12/26 03:29:39;;;;;;;1.10;1.10;;;13.00;1.00;;;;;;5162134;28;20266;-75
2023/12/26 03:32:18;;;;;;;0.80;0.80;;;13.00;1.00;;;;;;5178507;28;20041;-75
2023/12/26 03:34:51;;;;;;;1.38;0.70;;;12.90;1.00;;;;;;5181527;28;20038;-76
2023/12/26 03:37:25;;;;;;;1.20;1.20;;;13.10;1.00;;;;;;5162364;28;20034;-76
2023/12/26 03:39:57;;;;;;;1.00;1.00;;;13.00;1.00;;;;;;5134006;28;20250;-76
2023/12/26 03:42:31;;;;;;;0.80;0.80;;;13.10;1.00;;;;;;5146466;28;20034;-76
2023/12/26 03:45:03;;;;;;;0.80;0.80;;;13.10;1.00;;;;;;5157634;28;20042;-77
2023/12/26 03:47:34;;;;;;;1.52;1.42;;;13.00;1.00;;;;;;5163413;28;20032;-76
2023/12/26 03:52:56;;;;;;;1.00;1.00;;;12.90;1.00;;;;;;4459729;26;20056;-32
2023/12/26 03:55:33;;;;;;;1.00;1.00;;;13.10;1.00;;;;;;5197661;28;20040;-31
2023/12/26 03:58:10;;;;;;;1.85;1.05;;;13.00;1.00;;;;;;5201932;28;20018;-31
2023/12/26 04:00:48;;;;;;;1.00;1.00;;;13.00;1.00;;;;;;5181792;28;20021;-30
2023/12/26 04:03:31;;;;;;;0.80;0.80;;;12.90;1.00;;;;;;5188088;28;20329;-34
2023/12/26 04:06:08;;;;;;;;;;;12.80;1.00;;;;;;5204003;28;20030;-31
2023/12/26 04:08:46;;;;;;;1.25;1.15;;;12.70;1.00;;;;;;5201944;28;19907;-31
2023/12/26 04:11:27;;;;;;;1.30;1.20;;;12.70;1.00;;;;;;5193099;28;20222;-31
2023/12/26 04:14:04;;;;;;;0.90;0.90;;;12.60;1.00;;;;;;5202386;28;20225;-31
2023/12/26 04:16:35;;;;;;;;;;;12.50;1.00;;;;;;5200498;28;20041;-31
2023/12/26 04:19:09;;;;;;;0.90;0.90;;;12.30;1.00;;;;;;5202995;28;19909;-31
2023/12/26 04:21:47;;;;;;;1.23;1.13;;;11.90;1.00;;;;;;5203149;28;20035;-31
2023/12/26 04:24:19;;;;;;;1.10;1.00;;;11.60;1.00;;;;;;5212104;28;20305;-31
2023/12/26 04:26:53;;;;;;;1.30;1.20;;;11.20;1.00;;;;;;5192170;28;20036;-31
2023/12/26 04:29:27;;;;;;;1.25;1.25;;;10.90;1.00;;;;;;5190419;28;20017;-32
2023/12/26 04:32:02;;;;;;;1.00;1.00;;;10.70;1.00;;;;;;5196476;28;20043;-32
2023/12/26 04:34:33;;;;;;;1.20;1.10;;;10.50;1.00;;;;;;5200058;28;20029;-31
2023/12/26 04:37:07;;;;;;;1.45;1.13;;;10.20;1.00;;;;;;5181854;28;20214;-35
2023/12/26 04:39:40;;;;;;;1.27;0.88;;;10.20;1.00;;;;;;5199505;28;20236;-32
2023/12/26 04:42:20;;;;;;;1.40;1.30;;;10.00;1.00;;;;;;5193281;28;20033;-32
2023/12/26 04:44:51;;;;;;;0.98;0.98;;;9.90;1.00;;;;;;5172638;28;20463;-32
2023/12/26 04:47:29;;;;;;;1.20;1.10;;;9.80;1.00;;;;;;5177824;28;20056;-31
2023/12/26 04:50:04;;;;;;;2.25;1.00;;;9.80;1.00;;;;;;5194441;28;20317;-31
2023/12/26 04:52:37;;;;;;;1.02;1.02;;;9.70;1.00;;;;;;5199281;28;20064;-31
2023/12/26 04:55:09;;;;;;;1.08;1.00;;;9.60;1.00;;;;;;5208239;28;20349;-30
2023/12/26 04:57:43;;;;;;;1.00;0.90;;;9.60;1.00;;;;;;5180724;28;20413;-33
2023/12/26 05:00:17;;;;;;;2.05;1.25;;;9.60;1.00;;;;;;5166455;28;20042;-32
2023/12/26 05:02:49;;;;;;;;;;;9.50;1.00;;;;;;5160045;28;20060;-32
2023/12/26 05:05:23;;;;;;;1.08;1.08;;;9.50;1.00;;;;;;5186745;28;19909;-32
2023/12/26 05:07:54;;;;;;;1.03;1.00;;;9.60;1.00;;;;;;5181104;28;20329;-32
2023/12/26 05:10:33;;;;;;;1.20;1.10;;;9.60;1.00;;;;;;5199080;28;20239;-35
2023/12/26 05:13:06;;;;;;;0.80;0.80;;;9.60;1.00;;;;;;5197486;28;20043;-31
2023/12/26 05:15:41;;;;;;;0.85;0.85;;;9.50;1.00;;;;;;5194939;28;20556;-32
2023/12/26 05:18:13;;;;;;;2.05;0.70;;;9.60;1.00;;;;;;5190842;28;20045;-31
2023/12/26 05:20:44;;;;;;;1.50;1.00;;;9.50;1.00;;;;;;5177360;28;20219;-30
2023/12/26 05:23:15;;;;;;;1.05;0.95;;;9.60;1.00;;;;;;5165150;28;21115;-31
2023/12/26 05:25:49;;;;;;;0.90;0.90;;;9.50;1.00;;;;;;5186298;28;20034;-30
2023/12/26 05:28:23;;;;;;;0.98;0.98;;;9.50;1.00;;;;;;5177879;28;20032;-32
2023/12/26 05:30:57;;;;;;;0.80;0.80;;;9.60;1.00;;;;;;5195255;28;20034;-30
2023/12/26 05:33:37;;;;;;;0.90;0.90;;;9.50;1.00;;;;;;5191463;28;20035;-30
2023/12/26 05:36:08;;;;;;;1.23;1.00;;;9.40;1.00;;;;;;5188075;28;20232;-33
2023/12/26 05:38:41;;;;;;;2.03;1.02;;;9.70;1.00;;;;;;5164564;28;20579;-31
2023/12/26 05:41:15;;;;;;;1.08;0.98;;;9.80;1.00;;;;;;5178446;28;20045;-30
2023/12/26 05:43:46;;;;;;;1.15;1.05;;;9.80;1.00;;;;;;5179633;28;20036;-31
2023/12/26 05:46:20;;;;;;;0.95;0.90;;;9.90;1.00;;;;;;5195472;28;20024;-32
2023/12/26 05:48:51;;;;;;;1.40;1.03;;;9.70;1.00;;;;;;5176907;28;20026;-32
2023/12/26 05:51:23;;;;;;;1.33;1.15;;;9.60;1.00;;;;;;5178208;28;20263;-31
2023/12/26 05:54:00;;;;;;;0.95;0.85;;;9.40;1.00;;;;;;5182566;28;20029;-31
2023/12/26 05:56:32;;;;;;;0.70;0.70;;;9.30;1.00;;;;;;5156737;28;20335;-30
2023/12/26 05:59:03;;;;;;;1.48;1.13;;;9.20;1.00;;;;;;5181750;28;20032;-31
2023/12/26 06:01:37;;;;;;;1.33;1.08;;;9.10;1.00;;;;;;5156023;28;20341;-32
2023/12/26 06:04:10;;;;;;;1.63;1.20;;;9.00;1.00;;;;;;5167382;28;20034;-31
2023/12/26 06:06:47;;;;;;;1.33;1.15;;;9.10;1.00;;;;;;5175933;28;20230;-31
2023/12/26 06:09:18;;;;;;;1.08;0.98;;;9.20;1.00;;;;;;5175543;28;20032;-34
2023/12/26 06:11:50;;;;;;;1.30;1.20;;;9.30;1.00;;;;;;5176990;28;20051;-32
2023/12/26 06:14:24;;;;;;;1.40;1.30;;;9.40;1.00;;;;;;5175459;28;20237;-32
2023/12/26 06:16:56;;;;;;;1.08;0.90;;;9.40;1.00;;;;;;5186348;28;20249;-31
2023/12/26 06:19:27;;;;;;;1.58;1.23;;;9.30;1.00;;;;;;5189169;28;20288;-30
2023/12/26 06:22:01;;;;;;;0.80;0.80;;;9.20;1.00;;;;;;5177449;28;20041;-31
2023/12/26 06:24:32;;;;;;;2.45;1.02;;;9.20;1.00;;;;;;5205127;28;20055;-31
2023/12/26 06:27:05;;;;;;;0.70;0.70;;;9.30;1.00;;;;;;5179774;28;20033;-32
2023/12/26 06:29:36;;;;;;;1.10;1.10;;;9.50;1.00;;;;;;5197791;28;20033;-30
2023/12/26 06:32:10;;;;;;;0.90;0.90;;;9.60;1.00;;;;;;5160269;28;20171;-31
2023/12/26 06:34:44;;;;;;;0.95;0.90;;;9.80;1.00;;;;;;5169160;28;20036;-33
2023/12/26 06:37:17;;;;;;;1.15;1.13;;;10.30;1.00;;;;;;5161301;28;20029;-30
2023/12/26 06:39:51;;;;;;;1.63;1.50;;;10.70;1.00;;;;;;5155980;28;20030;-30
2023/12/26 06:42:23;;;;;;;2.47;1.50;;;10.90;1.00;;;;;;5177948;28;20044;-30
2023/12/26 06:44:54;;;;;;;2.60;1.92;;;10.80;1.00;;;;;;5175665;28;20050;-32
2023/12/26 06:47:27;;;;;;;2.17;1.63;;;10.70;1.00;;;;;;5176329;28;20025;-32
2023/12/26 06:50:01;;;;;;;2.22;1.60;;;10.60;1.00;;;;;;5179776;28;20033;-32
2023/12/26 06:52:32;;;;;;;5.38;3.97;;;10.40;1.00;;;;;;5178844;28;20041;-32
2023/12/26 06:55:07;;;;;;;3.10;2.63;;;10.30;1.00;;;;;;5183889;28;20037;-32
2023/12/26 06:57:43;;;;;;;2.55;2.20;;;10.30;1.00;;;;;;5163902;28;20109;-32
2023/12/26 07:00:18;;;;;;;3.60;2.53;;;10.20;1.00;;;;;;5170843;28;20049;-31
2023/12/26 07:02:49;;;;;;;;;;;10.20;1.00;;;;;;5190292;28;20037;-31
2023/12/26 07:05:20;;;;;;;2.47;1.50;;;10.10;1.00;;;;;;5197113;28;19909;-31
2023/12/26 07:07:52;;;;;;;2.70;1.75;;;10.00;1.00;;;;;;5198175;28;20271;-33
2023/12/26 07:10:23;;;;;;;2.92;2.10;;;9.90;1.00;;;;;;5173474;28;20045;-32
2023/12/26 07:12:55;;;;;;;2.78;2.05;;;9.90;1.00;;;;;;5192300;28;20048;-31
2023/12/26 07:15:31;;;;;;;5.82;2.92;;;9.90;1.00;;;;;;5197309;28;20037;-31
2023/12/26 07:18:02;;;;;;;2.90;2.20;;;9.70;1.00;;;;;;5201727;28;20021;-32
2023/12/26 07:20:36;;;;;;;2.47;1.83;;;9.70;1.00;;;;;;5201192;28;20052;-32
2023/12/26 07:23:08;;;;;;;2.50;1.67;;;9.60;1.00;;;;;;5201616;28;20357;-32
2023/12/26 07:25:42;;;;;;;3.67;1.73;;;9.60;1.00;;;;;;5162395;28;20052;-32
2023/12/26 07:28:17;;;;;;;2.50;1.60;;;9.70;1.00;;;;;;5187744;28;20021;-32
2023/12/26 07:30:50;;;;;;;2.53;1.88;;;9.70;1.00;;;;;;5179449;28;20139;-32
2023/12/26 07:33:22;;;;;;;2.20;2.00;;;9.60;1.00;;;;;;5181894;28;20229;-32
2023/12/26 07:35:57;;;;;;;4.95;2.80;;;9.60;1.00;;;;;;5200700;28;20047;-32
2023/12/26 07:38:28;;;;;;;6.25;4.05;;;9.60;1.00;;;;;;5200424;28;20246;-32
2023/12/26 07:41:02;;;;;;;3.88;2.55;;;9.70;1.00;;;;;;5181548;28;20040;-32
2023/12/26 07:43:33;;;;;;;4.38;3.15;;;9.70;1.00;;;;;;5181278;28;20739;-31
2023/12/26 07:46:05;;;;;;;38.42;16.95;;;9.60;1.00;;;;;;5183355;28;20036;-31
2023/12/26 07:48:38;;;;;;;27.23;13.38;;;9.90;1.00;;;;;;5200565;28;20036;-31
2023/12/26 07:51:14;;;;;;;8.63;5.30;;;10.00;1.00;;;;;;5179442;28;20029;-32
2023/12/26 07:53:51;;;;;;;9.35;6.07;;;10.00;1.00;;;;;;5199935;28;20034;-32
2023/12/26 07:56:22;;;;;;;4.40;3.10;;;10.00;1.00;;;;;;5167274;28;20042;-31
2023/12/26 07:58:58;;;;;;;2.15;1.95;;;10.30;1.00;;;;;;5181736;28;20034;-31
2023/12/26 08:01:31;;;;;;;2.00;1.67;;;10.70;1.00;;;;;;5180434;28;20230;-32
2023/12/26 08:04:05;;;;;;;3.75;1.58;;;11.00;1.00;;;;;;5189755;28;20052;-31
2023/12/26 08:06:38;;;;;;;1.45;1.10;;;11.60;1.00;;;;;;5200135;28;20026;-34
2023/12/26 08:09:12;;;;;;;1.90;1.70;;;11.80;1.00;;;;;;5178038;28;20018;-32
2023/12/26 08:11:53;;;;;;;1.57;1.30;;;12.10;1.00;;;;;;5181873;28;20031;-32
2023/12/26 08:14:24;;;;;;;1.20;1.08;;;12.20;1.00;;;;;;5188731;28;20349;-32
2023/12/26 08:16:58;;;;;;;2.75;1.92;;;12.10;22.80;;;;;;5180389;28;20037;-31
2023/12/26 08:19:32;;;;;;;1.30;1.20;;;12.10;88.10;;;;;;5189138;28;20560;-33
2023/12/26 08:22:03;;;;;;;3.17;1.67;;;12.10;99.90;;;;;;5195613;28;20041;-32
2023/12/26 08:24:36;;;;;;;2.00;1.40;;;12.10;99.90;;;;;;5206838;28;20030;-32
2023/12/26 08:27:07;;;;;;;2.25;1.30;;;12.00;99.90;;;;;;5207456;28;20036;-32
2023/12/26 08:29:41;;;;;;;2.00;1.30;;;12.00;99.90;;;;;;5207798;28;20362;-32
2023/12/26 08:32:12;;;;;;;1.00;1.00;;;11.90;81.40;;;;;;5196505;28;20029;-33
2023/12/26 08:34:44;;;;;;;1.77;1.45;;;11.80;38.40;;;;;;5178043;28;20068;-33
2023/12/26 08:37:19;;;;;;;1.33;1.20;;;11.80;9.10;;;;;;5172688;28;21158;-32
2023/12/26 08:39:50;;;;;;;1.42;1.33;;;11.90;74.30;;;;;;5162264;28;20034;-32
2023/12/26 08:42:24;;;;;;;1.45;1.13;;;11.90;96.20;;;;;;5193665;28;20242;-32
2023/12/26 08:44:55;;;;;;;1.45;1.27;;;11.90;96.60;;;;;;5197259;28;20029;-32
2023/12/26 08:47:29;;;;;;;1.70;1.08;;;11.90;99.90;;;;;;5194085;28;20040;-32
2023/12/26 08:50:01;;;;;;;1.40;1.30;;;12.00;99.90;;;;;;5198310;28;20025;-32
2023/12/26 08:52:32;;;;;;;1.30;1.20;;;12.00;58.70;;;;;;5199482;28;20047;-31
2023/12/26 08:55:06;;;;;;;7.05;1.70;;;12.00;1.00;;;;;;5178874;28;20037;-31
2023/12/26 08:57:37;;;;;;;1.23;1.02;;;12.00;41.50;;;;;;5173025;28;20053;-32
2023/12/26 09:00:13;;;;;;;1.33;1.23;;;12.10;86.50;;;;;;5172785;28;20109;-32
2023/12/26 09:02:47;;;;;;;0.95;0.95;;;12.10;21.40;;;;;;5187447;28;20037;-33
2023/12/26 09:05:18;;;;;;;1.63;1.25;;;12.10;99.90;;;;;;5193576;28;20025;-35
2023/12/26 09:07:50;;;;;;;2.10;1.20;;;12.10;99.90;;;;;;5193024;28;20030;-33
2023/12/26 09:10:21;;;;;;;1.30;1.00;;;12.10;69.20;;;;;;5190316;28;20026;-33
2023/12/26 09:12:52;;;;;;;2.83;1.45;;;12.10;99.90;;;;;;5184475;28;20072;-33
2023/12/26 09:15:25;;;;;;;1.20;1.10;;;12.10;99.90;;;;;;5186180;28;20033;-32
2023/12/26 09:17:56;;;;;;;1.00;1.00;;;12.00;99.90;;;;;;5180481;28;20037;-32
2023/12/26 09:20:27;;;;;;;2.50;1.80;;;12.00;99.90;;;;;;5167597;28;20301;-32
2023/12/26 09:23:02;;;;;;;1.45;1.30;;;12.00;99.90;;;;;;5193517;28;20250;-32
2023/12/26 09:25:34;;;;;;;2.05;1.00;;;11.90;99.90;;;;;;5197277;28;20245;-32
2023/12/26 09:28:08;;;;;;;1.70;1.30;;;11.80;99.90;;;;;;5196507;28;20051;-32
2023/12/26 09:30:39;;;;;;;1.55;1.30;;;11.80;99.90;;;;;;5193097;28;20189;-34
2023/12/26 09:33:11;;;;;;;0.93;0.93;;;11.70;99.90;;;;;;5197255;28;20033;-33
2023/12/26 09:35:44;;;;;;;1.40;1.30;;;11.70;99.90;;;;;;5176803;28;20033;-31
2023/12/26 09:38:18;;;;;;;1.23;1.10;;;11.60;99.90;;;;;;5179691;28;20333;-31
2023/12/26 09:40:57;;;;;;;1.10;1.10;;;11.60;88.40;;;;;;5185544;28;20041;-32
2023/12/26 09:43:28;;;;;;;1.10;1.10;;;11.50;99.90;;;;;;5191896;28;20202;-32
2023/12/26 09:46:01;;;;;;;2.15;1.25;;;11.40;99.90;;;;;;5174593;28;20044;-32
2023/12/26 09:48:35;;;;;;;1.42;1.23;;;11.40;99.90;;;;;;5174297;28;20396;-33
2023/12/26 09:51:11;;;;;;;1.20;1.10;;;11.30;99.90;;;;;;5170555;28;20044;-33
2023/12/26 09:53:45;;;;;;;1.60;1.10;;;11.30;99.90;;;;;;5172628;28;20037;-32
2023/12/26 09:56:18;;;;;;;1.67;1.13;;;11.30;99.90;;;;;;5196562;28;20026;-32
2023/12/26 09:58:50;;;;;;;1.33;1.10;;;11.20;99.90;;;;;;5179842;28;20333;-32
2023/12/26 10:01:21;;;;;;;2.35;1.20;;;11.20;99.90;;;;;;5192369;28;20399;-32
2023/12/26 10:03:56;;;;;;;1.27;1.05;;;11.10;99.90;;;;;;5164044;28;20034;-35
2023/12/26 10:06:27;;;;;;;2.17;1.10;;;11.10;99.90;;;;;;5172627;28;20033;-31
2023/12/26 10:09:01;;;;;;;1.65;0.90;;;11.00;99.90;;;;;;5172738;28;20030;-31
2023/12/26 10:11:32;;;;;;;1.33;1.13;;;11.00;99.90;;;;;;5173357;28;20032;-31
2023/12/26 10:14:06;;;;;;;1.02;1.02;;;10.90;54.30;;;;;;5190439;28;20029;-32
2023/12/26 10:16:37;;;;;;;1.93;1.20;;;10.90;42.10;;;;;;5188704;28;20025;-32
2023/12/26 10:19:13;;;;;;;2.63;1.67;;;10.80;94.00;;;;;;5187619;28;20699;-32
2023/12/26 10:21:45;;;;;;;1.60;1.50;;;10.80;54.20;;;;;;5189451;28;20224;-32
2023/12/26 10:24:19;;;;;;;2.55;1.65;;;10.80;99.90;;;;;;5173237;28;20037;-31
2023/12/26 10:26:53;;;;;;;2.25;1.50;;;10.80;6.20;;;;;;5191904;28;20262;-31
2023/12/26 10:29:27;;;;;;;1.55;1.08;;;10.80;99.90;;;;;;5174868;28;20033;-32
2023/12/26 10:32:02;;;;;;;;;;;10.70;89.30;;;;;;5155957;28;20040;-32
2023/12/26 10:34:34;;;;;;;1.60;1.50;;;10.70;67.00;;;;;;5188466;28;19927;-32
2023/12/26 10:37:05;;;;;;;2.33;1.20;;;10.70;93.30;;;;;;5172925;28;20025;-32
2023/12/26 10:39:36;;;;;;;1.95;1.30;;;10.70;99.90;;;;;;5174080;28;20827;-31
2023/12/26 10:42:14;;;;;;;1.30;1.20;;;10.70;99.90;;;;;;5191588;28;20040;-31
2023/12/26 10:45:05;;;;;;;2.10;1.73;;;10.70;89.70;;;;;;5191981;28;20056;-31
2023/12/26 10:47:40;;;;;;;2.05;1.55;;;10.70;99.90;;;;;;5189178;28;20037;-32
2023/12/26 10:50:12;;;;;;;2.60;1.20;;;10.70;99.90;;;;;;5187197;28;20031;-34
2023/12/26 10:53:09;;;;;;;5.95;1.85;;;10.70;99.90;;;;;;5189630;28;20244;-32
2023/12/26 10:55:45;;;;;;;2.05;1.25;;;10.70;99.90;;;;;;5189400;28;20025;-32
2023/12/26 10:58:29;;;;;;;1.45;1.35;;;10.80;99.90;;;;;;5189363;28;20021;-32
2023/12/26 13:54:10;;;;;;;1.30;1.20;;;11.00;1.00;;;;;;5175235;28;20037;-31
2023/12/26 13:57:18;;;;;;;3.67;1.30;;;10.90;1.00;;;;;;5189664;28;20229;-32
2023/12/26 13:59:50;;;;;;;1.90;1.40;;;10.80;1.00;;;;;;5170239;28;20029;-31
2023/12/26 14:02:21;;;;;;;1.15;1.05;;;10.80;1.00;;;;;;5162621;28;20033;-32
2023/12/26 14:04:55;;;;;;;1.80;1.40;;;10.70;1.00;;;;;;5183882;28;20037;-32
2023/12/26 14:07:26;;;;;;;3.38;1.35;;;10.80;1.00;;;;;;5192229;28;20035;-36
2023/12/26 14:10:00;;;;;;;1.80;1.52;;;10.70;1.00;;;;;;5160639;28;20376;-33
2023/12/26 14:12:31;;;;;;;2.20;1.38;;;10.70;1.00;;;;;;5159960;28;20040;-33
2023/12/26 14:15:03;;;;;;;1.55;1.40;;;10.70;1.00;;;;;;5191345;28;20029;-32
2023/12/26 14:17:34;;;;;;;1.58;1.40;;;10.70;1.00;;;;;;5189690;28;20033;-33
2023/12/26 14:20:05;;;;;;;1.63;1.50;;;10.60;1.00;;;;;;5189677;28;20089;-32
2023/12/26 14:22:37;;;;;;;1.25;0.93;;;10.70;1.00;;;;;;5192405;28;20045;-33
2023/12/26 14:25:08;;;;;;;1.52;1.30;;;10.70;1.00;;;;;;5189255;28;20033;-32
2023/12/26 14:27:39;;;;;;;1.48;1.27;;;10.70;1.00;;;;;;5184974;28;20222;-32
2023/12/26 14:30:14;;;;;;;1.40;1.30;;;10.70;1.00;;;;;;5188387;28;20033;-32
2023/12/26 14:32:45;;;;;;;4.10;1.73;;;10.60;1.00;;;;;;5173224;28;20434;-33
2023/12/26 14:35:21;;;;;;;1.63;1.15;;;10.70;1.00;;;;;;5172195;28;20052;-33
2023/12/26 14:37:53;;;;;;;1.65;1.15;;;10.70;1.00;;;;;;5172904;28;20351;-31
2023/12/26 14:40:26;;;;;;;1.75;1.65;;;10.70;1.00;;;;;;5190517;28;20333;-31
2023/12/26 14:43:00;;;;;;;1.30;1.20;;;10.70;1.00;;;;;;5185698;28;20221;-32
2023/12/26 14:45:36;;;;;;;3.77;1.60;;;10.60;1.00;;;;;;5185503;28;20325;-32
2023/12/26 14:48:10;;;;;;;2.35;1.60;;;10.70;1.00;;;;;;5185807;28;20025;-32
2023/12/26 14:50:41;;;;;;;3.97;1.75;;;10.70;1.00;;;;;;5185166;28;20034;-32
2023/12/26 14:53:12;;;;;;;2.40;1.70;;;10.70;1.00;;;;;;5162814;28;20041;-33
2023/12/26 14:55:43;;;;;;;3.05;2.00;;;10.70;1.00;;;;;;5168163;28;20033;-32
2023/12/26 14:58:17;;;;;;;2.13;1.60;;;10.70;1.00;;;;;;5173394;28;20349;-31
2023/12/26 15:00:48;;;;;;;4.57;1.43;;;10.70;1.00;;;;;;5171082;28;20037;-32
2023/12/26 15:03:20;;;;;;;2.80;1.50;;;10.70;1.00;;;;;;5190715;28;20353;-31
2023/12/26 15:05:53;;;;;;;1.63;1.52;;;10.70;1.00;;;;;;5170891;28;20294;-31
2023/12/26 15:08:26;;;;;;;2.42;1.65;;;10.70;1.00;;;;;;5190418;28;20180;-32
2023/12/26 15:11:05;;;;;;;1.73;1.35;;;10.70;1.00;;;;;;5181983;28;20029;-32
2023/12/26 15:13:37;;;;;;;3.08;1.42;;;10.70;1.00;;;;;;5190117;28;20029;-32
2023/12/26 15:16:21;;;;;;;2.22;1.50;;;10.70;1.00;;;;;;5177408;28;20318;-32
2023/12/26 15:18:55;;;;;;;2.25;1.65;;;10.70;1.00;;;;;;5184587;28;20291;-30
2023/12/26 15:21:26;;;;;;;1.20;1.10;;;10.70;1.00;;;;;;5183410;28;20029;-30
2023/12/26 15:23:58;;;;;;;1.25;1.15;;;10.70;1.00;;;;;;5183963;28;20030;-32
2023/12/26 15:26:32;;;;;;;4.47;1.40;;;10.80;1.00;;;;;;5181416;28;20017;-32
2023/12/26 15:29:07;;;;;;;2.20;1.10;;;10.80;1.00;;;;;;5188063;28;20314;-32
2023/12/26 15:31:42;;;;;;;1.40;1.30;;;10.80;1.00;;;;;;5185750;28;20553;-32
2023/12/26 15:34:13;;;;;;;1.20;1.13;;;10.90;1.00;;;;;;5163275;28;20034;-32
2023/12/26 15:36:48;;;;;;;2.55;1.30;;;10.90;1.00;;;;;;5175440;28;20044;-32
2023/12/26 15:39:19;;;;;;;1.92;1.23;;;11.00;1.00;;;;;;5169806;28;20345;-32
2023/12/26 15:41:50;;;;;;;2.10;1.20;;;11.10;1.00;;;;;;5174477;28;20377;-32
2023/12/26 15:44:24;;;;;;;2.83;1.15;;;11.10;1.00;;;;;;5194138;28;20162;-33
2023/12/26 15:46:55;;;;;;;1.70;1.30;;;11.10;1.00;;;;;;5191466;28;20298;-33
2023/12/26 15:49:29;;;;;;;3.65;1.55;;;11.10;1.00;;;;;;5176362;28;20027;-32
2023/12/26 15:52:03;;;;;;;1.85;1.10;;;11.10;1.00;;;;;;5194090;28;20109;-32
2023/12/26 15:54:39;;;;;;;1.45;1.35;;;11.10;1.00;;;;;;5183653;28;20274;-32
2023/12/26 15:57:15;;;;;;;1.23;1.13;;;11.20;1.00;;;;;;5192973;28;20029;-32
2023/12/26 15:59:46;;;;;;;1.52;1.42;;;11.20;1.00;;;;;;5174125;28;20029;-32
2023/12/26 16:02:17;;;;;;;1.48;0.93;;;11.20;1.00;;;;;;5189206;28;20029;-32
2023/12/26 16:04:55;;;;;;;1.50;1.40;;;11.20;1.00;;;;;;5176023;28;20032;-34
2023/12/26 16:07:26;;;;;;;2.25;1.27;;;11.20;1.00;;;;;;5192605;28;20305;-32
2023/12/26 16:09:57;;;;;;;2.53;1.42;;;11.20;1.00;;;;;;5164918;28;20124;-32
2023/12/26 16:12:34;;;;;;;1.20;1.10;;;11.10;1.00;;;;;;5188949;28;20041;-31
2023/12/26 16:15:06;;;;;;;1.65;1.33;;;11.00;1.00;;;;;;5188189;28;20056;-31
2023/12/26 16:17:38;;;;;;;1.70;1.60;;;11.00;1.00;;;;;;5171984;28;20041;-31
2023/12/26 16:20:12;;;;;;;1.40;1.30;;;10.90;1.00;;;;;;5173931;28;20363;-31
2023/12/26 16:22:43;;;;;;;1.20;1.10;;;10.90;1.00;;;;;;5192228;28;20026;-32
2023/12/26 16:25:14;;;;;;;2.80;1.27;;;10.90;1.00;;;;;;5182179;28;20041;-33
2023/12/26 16:27:45;;;;;;;2.35;1.00;;;10.90;1.00;;;;;;5191765;28;20029;-32